sensor_id;sensor_type;location;lat;lon;timestamp;temperature;humidity
72106;SHT30;59975;47.646;18.318;2022-07-03T00:00:29;17.48;74.96
72106;SHT30;59975;47.646;18.318;2022-07-03T00:02:55;17.40;75.21
72106;SHT30;59975;47.646;18.318;2022-07-03T00:05:22;17.39;75.26
72106;SHT30;59975;47.646;18.318;2022-07-03T00:07:48;17.32;75.48
72106;SHT30;59975;47.646;18.318;2022-07-03T00:10:13;17.28;75.75
72106;SHT30;59975;47.646;18.318;2022-07-03T00:12:39;17.24;75.72
72106;SHT30;59975;47.646;18.318;2022-07-03T00:15:05;17.19;75.90
72106;SHT30;59975;47.646;18.318;2022-07-03T00:17:31;17.18;75.93
72106;SHT30;59975;47.646;18.318;2022-07-03T00:19:57;17.11;76.08
72106;SHT30;59975;47.646;18.318;2022-07-03T00:22:24;17.05;76.59
72106;SHT30;59975;47.646;18.318;2022-07-03T00:24:52;17.03;76.79
72106;SHT30;59975;47.646;18.318;2022-07-03T00:27:19;17.03;79.15
72106;SHT30;59975;47.646;18.318;2022-07-03T00:29:46;17.10;80.21
72106;SHT30;59975;47.646;18.318;2022-07-03T00:32:14;17.05;81.17
72106;SHT30;59975;47.646;18.318;2022-07-03T00:34:42;17.05;81.82
72106;SHT30;59975;47.646;18.318;2022-07-03T00:37:09;17.08;82.65
72106;SHT30;59975;47.646;18.318;2022-07-03T00:39:36;17.05;82.24
72106;SHT30;59975;47.646;18.318;2022-07-03T00:42:04;17.01;82.48
72106;SHT30;59975;47.646;18.318;2022-07-03T00:44:33;16.98;83.18
72106;SHT30;59975;47.646;18.318;2022-07-03T00:47:02;16.92;83.26
72106;SHT30;59975;47.646;18.318;2022-07-03T00:49:29;16.91;80.71
72106;SHT30;59975;47.646;18.318;2022-07-03T00:51:56;16.89;79.74
72106;SHT30;59975;47.646;18.318;2022-07-03T00:54:22;16.83;80.03
72106;SHT30;59975;47.646;18.318;2022-07-03T00:56:54;16.78;80.37
72106;SHT30;59975;47.646;18.318;2022-07-03T00:59:20;16.73;79.81
72106;SHT30;59975;47.646;18.318;2022-07-03T01:01:53;16.67;80.07
72106;SHT30;59975;47.646;18.318;2022-07-03T01:07:41;16.59;79.89
72106;SHT30;59975;47.646;18.318;2022-07-03T01:16:13;16.59;80.44
72106;SHT30;59975;47.646;18.318;2022-07-03T01:18:49;16.59;81.30
72106;SHT30;59975;47.646;18.318;2022-07-03T01:27:56;16.46;84.92
72106;SHT30;59975;47.646;18.318;2022-07-03T01:30:35;16.46;86.23
72106;SHT30;59975;47.646;18.318;2022-07-03T01:36:03;16.40;86.51
72106;SHT30;59975;47.646;18.318;2022-07-03T01:38:37;16.41;86.09
72106;SHT30;59975;47.646;18.318;2022-07-03T01:41:05;16.39;85.93
72106;SHT30;59975;47.646;18.318;2022-07-03T01:43:33;16.34;85.81
72106;SHT30;59975;47.646;18.318;2022-07-03T01:46:01;16.33;85.53
72106;SHT30;59975;47.646;18.318;2022-07-03T01:48:28;16.30;85.40
72106;SHT30;59975;47.646;18.318;2022-07-03T01:50:56;16.20;85.83
72106;SHT30;59975;47.646;18.318;2022-07-03T01:53:27;16.14;85.59
72106;SHT30;59975;47.646;18.318;2022-07-03T01:55:56;16.10;84.67
72106;SHT30;59975;47.646;18.318;2022-07-03T01:58:22;16.08;85.01
72106;SHT30;59975;47.646;18.318;2022-07-03T02:09:17;15.82;85.29
72106;SHT30;59975;47.646;18.318;2022-07-03T02:11:44;15.83;85.08
72106;SHT30;59975;47.646;18.318;2022-07-03T02:16:54;15.81;84.49
72106;SHT30;59975;47.646;18.318;2022-07-03T02:19:29;15.83;85.50
72106;SHT30;59975;47.646;18.318;2022-07-03T02:21:57;15.83;85.73
72106;SHT30;59975;47.646;18.318;2022-07-03T02:24:26;15.83;85.95
72106;SHT30;59975;47.646;18.318;2022-07-03T02:26:55;15.81;86.05
72106;SHT30;59975;47.646;18.318;2022-07-03T02:29:28;15.85;86.37
72106;SHT30;59975;47.646;18.318;2022-07-03T02:31:59;15.77;86.38
72106;SHT30;59975;47.646;18.318;2022-07-03T02:34:27;15.68;86.24
72106;SHT30;59975;47.646;18.318;2022-07-03T02:36:57;15.61;85.37
72106;SHT30;59975;47.646;18.318;2022-07-03T02:39:45;15.61;84.86
72106;SHT30;59975;47.646;18.318;2022-07-03T02:45:11;15.51;85.34
72106;SHT30;59975;47.646;18.318;2022-07-03T02:48:00;15.52;85.22
72106;SHT30;59975;47.646;18.318;2022-07-03T02:50:28;15.49;85.07
72106;SHT30;59975;47.646;18.318;2022-07-03T02:55:44;15.42;85.35
72106;SHT30;59975;47.646;18.318;2022-07-03T03:01:20;15.52;84.46
72106;SHT30;59975;47.646;18.318;2022-07-03T03:07:10;15.58;84.28
72106;SHT30;59975;47.646;18.318;2022-07-03T03:09:41;15.57;84.22
72106;SHT30;59975;47.646;18.318;2022-07-03T03:12:08;15.58;84.05
72106;SHT30;59975;47.646;18.318;2022-07-03T03:14:45;15.57;84.09
72106;SHT30;59975;47.646;18.318;2022-07-03T03:17:23;15.58;84.12
72106;SHT30;59975;47.646;18.318;2022-07-03T03:19:56;15.63;83.72
72106;SHT30;59975;47.646;18.318;2022-07-03T03:25:29;16.49;80.54
72106;SHT30;59975;47.646;18.318;2022-07-03T03:27:54;16.88;78.90
72106;SHT30;59975;47.646;18.318;2022-07-03T03:30:20;17.45;76.84
72106;SHT30;59975;47.646;18.318;2022-07-03T03:32:48;17.91;74.85
72106;SHT30;59975;47.646;18.318;2022-07-03T03:35:14;18.31;73.61
72106;SHT30;59975;47.646;18.318;2022-07-03T03:37:41;18.69;72.27
72106;SHT30;59975;47.646;18.318;2022-07-03T03:40:07;19.11;71.39
72106;SHT30;59975;47.646;18.318;2022-07-03T03:42:33;19.46;71.49
72106;SHT30;59975;47.646;18.318;2022-07-03T03:44:59;19.78;71.10
72106;SHT30;59975;47.646;18.318;2022-07-03T03:47:25;19.94;70.57
72106;SHT30;59975;47.646;18.318;2022-07-03T03:49:51;20.18;69.55
72106;SHT30;59975;47.646;18.318;2022-07-03T03:52:16;20.35;68.62
72106;SHT30;59975;47.646;18.318;2022-07-03T03:54:43;20.56;67.97
72106;SHT30;59975;47.646;18.318;2022-07-03T03:57:19;20.79;67.88
72106;SHT30;59975;47.646;18.318;2022-07-03T03:59:45;20.83;67.36
72106;SHT30;59975;47.646;18.318;2022-07-03T04:02:10;21.09;66.56
72106;SHT30;59975;47.646;18.318;2022-07-03T04:04:37;21.12;66.14
72106;SHT30;59975;47.646;18.318;2022-07-03T04:07:03;21.10;65.14
72106;SHT30;59975;47.646;18.318;2022-07-03T04:09:28;21.55;63.82
72106;SHT30;59975;47.646;18.318;2022-07-03T04:11:54;21.67;62.63
72106;SHT30;59975;47.646;18.318;2022-07-03T04:14:20;21.54;62.50
72106;SHT30;59975;47.646;18.318;2022-07-03T04:16:46;21.78;61.57
72106;SHT30;59975;47.646;18.318;2022-07-03T04:19:12;21.93;60.43
72106;SHT30;59975;47.646;18.318;2022-07-03T04:21:38;21.78;60.73
72106;SHT30;59975;47.646;18.318;2022-07-03T04:24:05;21.43;61.99
72106;SHT30;59975;47.646;18.318;2022-07-03T04:26:32;20.95;63.95
72106;SHT30;59975;47.646;18.318;2022-07-03T04:28:58;20.34;65.74
72106;SHT30;59975;47.646;18.318;2022-07-03T04:31:24;19.88;67.37
72106;SHT30;59975;47.646;18.318;2022-07-03T04:33:50;19.53;68.24
72106;SHT30;59975;47.646;18.318;2022-07-03T04:36:16;19.35;69.36
72106;SHT30;59975;47.646;18.318;2022-07-03T04:38:42;19.23;69.89
72106;SHT30;59975;47.646;18.318;2022-07-03T04:41:08;19.12;70.03
72106;SHT30;59975;47.646;18.318;2022-07-03T04:43:34;19.03;71.18
72106;SHT30;59975;47.646;18.318;2022-07-03T04:45:59;19.03;70.85
72106;SHT30;59975;47.646;18.318;2022-07-03T04:48:25;19.01;71.08
72106;SHT30;59975;47.646;18.318;2022-07-03T04:50:51;18.99;70.82
72106;SHT30;59975;47.646;18.318;2022-07-03T04:53:16;19.08;70.86
72106;SHT30;59975;47.646;18.318;2022-07-03T04:55:42;19.13;70.58
72106;SHT30;59975;47.646;18.318;2022-07-03T04:58:07;19.18;70.21
72106;SHT30;59975;47.646;18.318;2022-07-03T05:00:33;19.22;70.23
72106;SHT30;59975;47.646;18.318;2022-07-03T05:02:59;19.25;69.88
72106;SHT30;59975;47.646;18.318;2022-07-03T05:05:25;19.33;72.80
72106;SHT30;59975;47.646;18.318;2022-07-03T05:07:51;19.39;73.06
72106;SHT30;59975;47.646;18.318;2022-07-03T05:10:17;19.43;73.33
72106;SHT30;59975;47.646;18.318;2022-07-03T05:12:43;19.47;73.54
72106;SHT30;59975;47.646;18.318;2022-07-03T05:15:09;19.53;72.95
72106;SHT30;59975;47.646;18.318;2022-07-03T05:17:34;19.62;72.79
72106;SHT30;59975;47.646;18.318;2022-07-03T05:20:00;19.66;72.15
72106;SHT30;59975;47.646;18.318;2022-07-03T05:22:46;19.70;71.30
72106;SHT30;59975;47.646;18.318;2022-07-03T05:25:13;19.71;71.72
72106;SHT30;59975;47.646;18.318;2022-07-03T05:27:39;19.83;70.73
72106;SHT30;59975;47.646;18.318;2022-07-03T05:30:05;19.81;70.64
72106;SHT30;59975;47.646;18.318;2022-07-03T05:32:31;19.90;70.69
72106;SHT30;59975;47.646;18.318;2022-07-03T05:34:57;19.97;70.52
72106;SHT30;59975;47.646;18.318;2022-07-03T05:37:23;20.00;69.76
72106;SHT30;59975;47.646;18.318;2022-07-03T05:39:49;20.08;69.99
72106;SHT30;59975;47.646;18.318;2022-07-03T05:42:14;20.21;68.59
72106;SHT30;59975;47.646;18.318;2022-07-03T05:44:40;20.21;68.96
72106;SHT30;59975;47.646;18.318;2022-07-03T05:47:06;20.27;69.09
72106;SHT30;59975;47.646;18.318;2022-07-03T05:49:32;20.35;69.07
72106;SHT30;59975;47.646;18.318;2022-07-03T05:51:58;20.49;68.76
72106;SHT30;59975;47.646;18.318;2022-07-03T05:54:24;20.56;68.80
72106;SHT30;59975;47.646;18.318;2022-07-03T05:56:49;20.65;68.02
72106;SHT30;59975;47.646;18.318;2022-07-03T05:59:16;20.76;67.83
72106;SHT30;59975;47.646;18.318;2022-07-03T06:01:42;20.79;67.50
72106;SHT30;59975;47.646;18.318;2022-07-03T06:04:08;20.82;66.85
72106;SHT30;59975;47.646;18.318;2022-07-03T06:06:35;20.86;66.83
72106;SHT30;59975;47.646;18.318;2022-07-03T06:09:00;20.93;66.52
72106;SHT30;59975;47.646;18.318;2022-07-03T06:11:26;20.92;66.52
72106;SHT30;59975;47.646;18.318;2022-07-03T06:13:51;20.95;66.63
72106;SHT30;59975;47.646;18.318;2022-07-03T06:16:18;20.99;66.69
72106;SHT30;59975;47.646;18.318;2022-07-03T06:18:43;21.04;66.86
72106;SHT30;59975;47.646;18.318;2022-07-03T06:21:10;21.19;66.32
72106;SHT30;59975;47.646;18.318;2022-07-03T06:23:36;21.23;67.02
72106;SHT30;59975;47.646;18.318;2022-07-03T06:26:02;21.32;66.45
72106;SHT30;59975;47.646;18.318;2022-07-03T06:28:28;21.44;66.20
72106;SHT30;59975;47.646;18.318;2022-07-03T06:30:53;21.54;66.80
72106;SHT30;59975;47.646;18.318;2022-07-03T06:33:21;21.64;66.64
72106;SHT30;59975;47.646;18.318;2022-07-03T06:35:47;21.73;66.09
72106;SHT30;59975;47.646;18.318;2022-07-03T06:38:13;21.87;65.93
72106;SHT30;59975;47.646;18.318;2022-07-03T06:40:39;21.95;66.38
72106;SHT30;59975;47.646;18.318;2022-07-03T06:43:04;22.04;65.35
72106;SHT30;59975;47.646;18.318;2022-07-03T06:45:30;22.19;65.75
72106;SHT30;59975;47.646;18.318;2022-07-03T06:47:56;22.28;64.52
72106;SHT30;59975;47.646;18.318;2022-07-03T06:50:23;22.39;64.54
72106;SHT30;59975;47.646;18.318;2022-07-03T06:56:10;22.58;63.89
72106;SHT30;59975;47.646;18.318;2022-07-03T06:58:36;22.69;63.92
72106;SHT30;59975;47.646;18.318;2022-07-03T07:01:03;22.85;63.12
72106;SHT30;59975;47.646;18.318;2022-07-03T07:03:28;22.96;62.60
72106;SHT30;59975;47.646;18.318;2022-07-03T07:09:16;23.16;60.58
72106;SHT30;59975;47.646;18.318;2022-07-03T07:11:42;23.26;60.44
72106;SHT30;59975;47.646;18.318;2022-07-03T07:14:08;23.30;59.81
72106;SHT30;59975;47.646;18.318;2022-07-03T07:16:34;23.46;60.03
72106;SHT30;59975;47.646;18.318;2022-07-03T07:18:59;23.62;58.43
72106;SHT30;59975;47.646;18.318;2022-07-03T07:21:24;23.86;57.90
72106;SHT30;59975;47.646;18.318;2022-07-03T07:23:50;23.86;56.89
72106;SHT30;59975;47.646;18.318;2022-07-03T07:26:16;23.82;57.05
72106;SHT30;59975;47.646;18.318;2022-07-03T07:28:43;23.84;57.43
72106;SHT30;59975;47.646;18.318;2022-07-03T07:31:08;23.91;55.38
72106;SHT30;59975;47.646;18.318;2022-07-03T07:33:35;24.01;56.59
72106;SHT30;59975;47.646;18.318;2022-07-03T07:36:00;24.11;55.01
72106;SHT30;59975;47.646;18.318;2022-07-03T07:38:27;24.21;55.43
72106;SHT30;59975;47.646;18.318;2022-07-03T07:40:52;24.29;52.40
72106;SHT30;59975;47.646;18.318;2022-07-03T07:43:19;24.49;51.39
72106;SHT30;59975;47.646;18.318;2022-07-03T07:45:44;24.63;50.44
72106;SHT30;59975;47.646;18.318;2022-07-03T07:48:10;24.72;49.72
72106;SHT30;59975;47.646;18.318;2022-07-03T07:50:36;24.82;48.99
72106;SHT30;59975;47.646;18.318;2022-07-03T07:53:02;25.04;49.19
72106;SHT30;59975;47.646;18.318;2022-07-03T07:55:28;25.07;49.02
72106;SHT30;59975;47.646;18.318;2022-07-03T07:57:53;25.08;49.04
72106;SHT30;59975;47.646;18.318;2022-07-03T08:00:20;25.20;49.33
72106;SHT30;59975;47.646;18.318;2022-07-03T08:02:47;25.34;48.80
72106;SHT30;59975;47.646;18.318;2022-07-03T08:05:33;25.37;48.66
72106;SHT30;59975;47.646;18.318;2022-07-03T08:10:44;25.44;49.12
72106;SHT30;59975;47.646;18.318;2022-07-03T08:13:10;25.55;48.08
72106;SHT30;59975;47.646;18.318;2022-07-03T08:15:37;25.59;48.60
72106;SHT30;59975;47.646;18.318;2022-07-03T08:18:04;25.69;47.48
72106;SHT30;59975;47.646;18.318;2022-07-03T08:20:29;25.81;47.82
72106;SHT30;59975;47.646;18.318;2022-07-03T08:22:55;25.92;47.30
72106;SHT30;59975;47.646;18.318;2022-07-03T08:25:22;26.01;46.88
72106;SHT30;59975;47.646;18.318;2022-07-03T08:27:48;25.96;46.92
72106;SHT30;59975;47.646;18.318;2022-07-03T08:30:15;26.05;46.39
72106;SHT30;59975;47.646;18.318;2022-07-03T08:32:44;26.06;44.69
72106;SHT30;59975;47.646;18.318;2022-07-03T08:35:11;26.09;44.87
72106;SHT30;59975;47.646;18.318;2022-07-03T08:37:37;26.21;44.31
72106;SHT30;59975;47.646;18.318;2022-07-03T08:40:10;26.19;44.21
72106;SHT30;59975;47.646;18.318;2022-07-03T08:42:42;26.26;44.10
72106;SHT30;59975;47.646;18.318;2022-07-03T08:45:14;26.33;44.63
72106;SHT30;59975;47.646;18.318;2022-07-03T08:47:42;26.42;43.70
72106;SHT30;59975;47.646;18.318;2022-07-03T08:53:29;26.53;42.28
72106;SHT30;59975;47.646;18.318;2022-07-03T08:55:55;26.79;42.96
72106;SHT30;59975;47.646;18.318;2022-07-03T08:58:25;26.97;42.28
72106;SHT30;59975;47.646;18.318;2022-07-03T09:00:53;27.05;42.01
72106;SHT30;59975;47.646;18.318;2022-07-03T09:03:20;27.08;40.82
72106;SHT30;59975;47.646;18.318;2022-07-03T09:05:50;27.10;41.69
72106;SHT30;59975;47.646;18.318;2022-07-03T09:08:15;27.20;41.71
72106;SHT30;59975;47.646;18.318;2022-07-03T09:10:44;27.28;41.29
72106;SHT30;59975;47.646;18.318;2022-07-03T09:13:10;27.41;41.24
72106;SHT30;59975;47.646;18.318;2022-07-03T09:15:37;27.42;41.45
72106;SHT30;59975;47.646;18.318;2022-07-03T09:18:07;27.51;41.85
72106;SHT30;59975;47.646;18.318;2022-07-03T09:20:35;27.56;41.15
72106;SHT30;59975;47.646;18.318;2022-07-03T09:23:22;27.61;41.61
72106;SHT30;59975;47.646;18.318;2022-07-03T09:25:53;27.70;41.08
72106;SHT30;59975;47.646;18.318;2022-07-03T09:28:20;27.82;40.76
72106;SHT30;59975;47.646;18.318;2022-07-03T09:31:06;27.89;40.39
72106;SHT30;59975;47.646;18.318;2022-07-03T09:33:32;27.92;41.34
72106;SHT30;59975;47.646;18.318;2022-07-03T09:35:58;27.86;41.09
72106;SHT30;59975;47.646;18.318;2022-07-03T09:49:57;27.92;40.54
72106;SHT30;59975;47.646;18.318;2022-07-03T09:52:34;27.96;40.77
72106;SHT30;59975;47.646;18.318;2022-07-03T09:58:00;28.13;41.32
72106;SHT30;59975;47.646;18.318;2022-07-03T10:00:29;28.14;41.85
72106;SHT30;59975;47.646;18.318;2022-07-03T10:05:42;28.46;39.95
72106;SHT30;59975;47.646;18.318;2022-07-03T10:10:52;28.67;39.16
72106;SHT30;59975;47.646;18.318;2022-07-03T10:13:17;28.56;38.77
72106;SHT30;59975;47.646;18.318;2022-07-03T10:15:43;28.68;38.65
72106;SHT30;59975;47.646;18.318;2022-07-03T10:18:11;28.87;38.53
72106;SHT30;59975;47.646;18.318;2022-07-03T10:20:47;28.82;37.82
72106;SHT30;59975;47.646;18.318;2022-07-03T10:23:20;28.77;38.36
72106;SHT30;59975;47.646;18.318;2022-07-03T10:25:46;28.95;38.71
72106;SHT30;59975;47.646;18.318;2022-07-03T10:28:17;29.08;37.75
72106;SHT30;59975;47.646;18.318;2022-07-03T10:30:44;29.24;38.49
72106;SHT30;59975;47.646;18.318;2022-07-03T10:33:10;29.14;37.63
72106;SHT30;59975;47.646;18.318;2022-07-03T10:35:38;29.08;37.86
72106;SHT30;59975;47.646;18.318;2022-07-03T10:38:13;28.84;38.53
72106;SHT30;59975;47.646;18.318;2022-07-03T10:43:46;28.84;38.34
72106;SHT30;59975;47.646;18.318;2022-07-03T10:46:32;28.91;38.96
72106;SHT30;59975;47.646;18.318;2022-07-03T10:49:08;28.97;38.62
72106;SHT30;59975;47.646;18.318;2022-07-03T10:57:06;28.95;39.05
72106;SHT30;59975;47.646;18.318;2022-07-03T11:10:32;29.25;39.32
72106;SHT30;59975;47.646;18.318;2022-07-03T11:13:18;29.29;38.81
72106;SHT30;59975;47.646;18.318;2022-07-03T11:15:47;29.32;38.72
72106;SHT30;59975;47.646;18.318;2022-07-03T11:18:33;29.45;39.11
72106;SHT30;59975;47.646;18.318;2022-07-03T11:26:39;29.52;38.95
72106;SHT30;59975;47.646;18.318;2022-07-03T11:29:04;29.63;38.84
72106;SHT30;59975;47.646;18.318;2022-07-03T11:31:30;29.75;38.48
72106;SHT30;59975;47.646;18.318;2022-07-03T11:33:58;29.67;38.71
72106;SHT30;59975;47.646;18.318;2022-07-03T11:36:24;29.86;38.94
72106;SHT30;59975;47.646;18.318;2022-07-03T11:44:18;29.96;38.41
72106;SHT30;59975;47.646;18.318;2022-07-03T11:46:47;29.92;38.85
72106;SHT30;59975;47.646;18.318;2022-07-03T11:49:20;29.92;38.63
72106;SHT30;59975;47.646;18.318;2022-07-03T11:55:06;30.17;37.43
72106;SHT30;59975;47.646;18.318;2022-07-03T11:57:32;30.20;37.59
72106;SHT30;59975;47.646;18.318;2022-07-03T12:00:07;30.07;38.63
72106;SHT30;59975;47.646;18.318;2022-07-03T12:02:48;30.10;38.88
72106;SHT30;59975;47.646;18.318;2022-07-03T12:05:14;30.20;38.65
72106;SHT30;59975;47.646;18.318;2022-07-03T12:07:40;30.23;37.96
72106;SHT30;59975;47.646;18.318;2022-07-03T12:10:07;30.36;39.01
72106;SHT30;59975;47.646;18.318;2022-07-03T12:12:36;30.65;37.86
72106;SHT30;59975;47.646;18.318;2022-07-03T12:15:03;30.78;38.22
72106;SHT30;59975;47.646;18.318;2022-07-03T12:17:28;30.92;38.13
72106;SHT30;59975;47.646;18.318;2022-07-03T12:19:55;30.82;37.01
72106;SHT30;59975;47.646;18.318;2022-07-03T12:22:22;30.84;37.59
72106;SHT30;59975;47.646;18.318;2022-07-03T12:25:09;30.91;38.13
72106;SHT30;59975;47.646;18.318;2022-07-03T12:27:39;31.05;37.25
72106;SHT30;59975;47.646;18.318;2022-07-03T12:30:07;30.84;36.58
72106;SHT30;59975;47.646;18.318;2022-07-03T12:32:33;30.78;37.07
72106;SHT30;59975;47.646;18.318;2022-07-03T12:35:00;30.70;37.59
72106;SHT30;59975;47.646;18.318;2022-07-03T12:37:36;30.88;38.06
72106;SHT30;59975;47.646;18.318;2022-07-03T12:40:05;30.92;37.74
72106;SHT30;59975;47.646;18.318;2022-07-03T12:42:31;30.77;37.05
72106;SHT30;59975;47.646;18.318;2022-07-03T12:44:58;30.50;38.33
72106;SHT30;59975;47.646;18.318;2022-07-03T12:47:26;30.53;38.14
72106;SHT30;59975;47.646;18.318;2022-07-03T12:50:03;30.61;38.06
72106;SHT30;59975;47.646;18.318;2022-07-03T12:52:30;30.58;37.78
72106;SHT30;59975;47.646;18.318;2022-07-03T12:54:57;30.43;39.03
72106;SHT30;59975;47.646;18.318;2022-07-03T12:57:24;30.68;38.65
72106;SHT30;59975;47.646;18.318;2022-07-03T13:02:47;30.84;37.80
72106;SHT30;59975;47.646;18.318;2022-07-03T13:07:55;30.78;38.04
72106;SHT30;59975;47.646;18.318;2022-07-03T13:10:23;30.87;37.40
72106;SHT30;59975;47.646;18.318;2022-07-03T13:15:28;30.96;37.67
72106;SHT30;59975;47.646;18.318;2022-07-03T13:20:33;30.87;37.29
72106;SHT30;59975;47.646;18.318;2022-07-03T13:23:02;30.98;38.01
72106;SHT30;59975;47.646;18.318;2022-07-03T13:25:29;30.92;36.98
72106;SHT30;59975;47.646;18.318;2022-07-03T13:28:15;30.96;36.90
72106;SHT30;59975;47.646;18.318;2022-07-03T13:30:42;30.88;36.70
72106;SHT30;59975;47.646;18.318;2022-07-03T13:33:09;30.92;37.60
72106;SHT30;59975;47.646;18.318;2022-07-03T13:35:35;30.71;38.14
72106;SHT30;59975;47.646;18.318;2022-07-03T13:38:01;30.77;37.04
72106;SHT30;59975;47.646;18.318;2022-07-03T13:40:27;31.01;37.70
72106;SHT30;59975;47.646;18.318;2022-07-03T13:42:53;31.26;38.05
72106;SHT30;59975;47.646;18.318;2022-07-03T13:45:19;31.35;37.46
72106;SHT30;59975;47.646;18.318;2022-07-03T13:47:45;31.16;37.06
72106;SHT30;59975;47.646;18.318;2022-07-03T13:50:12;30.88;37.34
72106;SHT30;59975;47.646;18.318;2022-07-03T13:52:38;30.88;37.94
72106;SHT30;59975;47.646;18.318;2022-07-03T13:55:04;30.88;37.96
72106;SHT30;59975;47.646;18.318;2022-07-03T13:57:29;30.95;38.43
72106;SHT30;59975;47.646;18.318;2022-07-03T13:59:55;31.01;38.19
72106;SHT30;59975;47.646;18.318;2022-07-03T14:02:21;31.05;38.02
72106;SHT30;59975;47.646;18.318;2022-07-03T14:04:47;30.94;37.21
72106;SHT30;59975;47.646;18.318;2022-07-03T14:07:13;30.95;37.57
72106;SHT30;59975;47.646;18.318;2022-07-03T14:09:39;30.94;37.47
72106;SHT30;59975;47.646;18.318;2022-07-03T14:12:05;31.07;36.26
72106;SHT30;59975;47.646;18.318;2022-07-03T14:14:30;30.99;36.58
72106;SHT30;59975;47.646;18.318;2022-07-03T14:16:56;30.91;36.92
72106;SHT30;59975;47.646;18.318;2022-07-03T14:19:22;30.84;36.59
72106;SHT30;59975;47.646;18.318;2022-07-03T14:21:48;30.96;35.90
72106;SHT30;59975;47.646;18.318;2022-07-03T14:24:14;30.96;35.97
72106;SHT30;59975;47.646;18.318;2022-07-03T14:26:40;31.11;36.68
72106;SHT30;59975;47.646;18.318;2022-07-03T14:29:26;31.07;36.36
72106;SHT30;59975;47.646;18.318;2022-07-03T14:32:11;31.08;36.84
72106;SHT30;59975;47.646;18.318;2022-07-03T14:34:57;31.14;36.76
72106;SHT30;59975;47.646;18.318;2022-07-03T14:37:24;31.16;36.53
72106;SHT30;59975;47.646;18.318;2022-07-03T14:39:49;31.23;36.05
72106;SHT30;59975;47.646;18.318;2022-07-03T14:42:16;31.41;35.54
72106;SHT30;59975;47.646;18.318;2022-07-03T14:44:42;31.32;34.90
72106;SHT30;59975;47.646;18.318;2022-07-03T14:47:09;31.39;35.58
72106;SHT30;59975;47.646;18.318;2022-07-03T14:49:35;31.38;36.48
72106;SHT30;59975;47.646;18.318;2022-07-03T14:52:01;31.35;36.19
72106;SHT30;59975;47.646;18.318;2022-07-03T14:54:27;31.38;36.82
72106;SHT30;59975;47.646;18.318;2022-07-03T14:56:54;31.39;36.90
72106;SHT30;59975;47.646;18.318;2022-07-03T15:02:21;31.02;36.19
72106;SHT30;59975;47.646;18.318;2022-07-03T15:07:37;31.16;37.81
72106;SHT30;59975;47.646;18.318;2022-07-03T15:10:05;31.11;37.83
72106;SHT30;59975;47.646;18.318;2022-07-03T15:12:37;31.15;38.24
72106;SHT30;59975;47.646;18.318;2022-07-03T15:15:03;31.25;37.50
72106;SHT30;59975;47.646;18.318;2022-07-03T15:17:31;31.19;37.35
72106;SHT30;59975;47.646;18.318;2022-07-03T15:20:01;31.42;37.36
72106;SHT30;59975;47.646;18.318;2022-07-03T15:22:29;31.90;35.30
72106;SHT30;59975;47.646;18.318;2022-07-03T15:24:56;32.41;34.42
72106;SHT30;59975;47.646;18.318;2022-07-03T15:27:23;33.48;33.32
72106;SHT30;59975;47.646;18.318;2022-07-03T15:29:50;34.14;31.66
72106;SHT30;59975;47.646;18.318;2022-07-03T15:32:16;34.39;31.45
72106;SHT30;59975;47.646;18.318;2022-07-03T15:34:43;34.45;31.78
72106;SHT30;59975;47.646;18.318;2022-07-03T15:40:18;34.81;31.27
72106;SHT30;59975;47.646;18.318;2022-07-03T15:46:50;36.40;29.23
72106;SHT30;59975;47.646;18.318;2022-07-03T15:49:25;36.24;28.74
72106;SHT30;59975;47.646;18.318;2022-07-03T15:52:21;36.10;28.88
72106;SHT30;59975;47.646;18.318;2022-07-03T15:54:58;36.20;28.40
72106;SHT30;59975;47.646;18.318;2022-07-03T16:00:09;36.55;28.14
72106;SHT30;59975;47.646;18.318;2022-07-03T16:03:20;36.70;28.63
72106;SHT30;59975;47.646;18.318;2022-07-03T16:05:42;36.55;28.18
72106;SHT30;59975;47.646;18.318;2022-07-03T16:08:11;36.64;28.30
72106;SHT30;59975;47.646;18.318;2022-07-03T16:10:38;36.68;27.99
72106;SHT30;59975;47.646;18.318;2022-07-03T16:13:04;36.21;27.69
72106;SHT30;59975;47.646;18.318;2022-07-03T16:15:34;36.67;27.75
72106;SHT30;59975;47.646;18.318;2022-07-03T16:18:01;36.72;27.97
72106;SHT30;59975;47.646;18.318;2022-07-03T16:20:28;36.49;28.24
72106;SHT30;59975;47.646;18.318;2022-07-03T16:23:02;36.31;27.94
72106;SHT30;59975;47.646;18.318;2022-07-03T16:25:29;36.41;28.22
72106;SHT30;59975;47.646;18.318;2022-07-03T16:27:55;36.85;27.98
72106;SHT30;59975;47.646;18.318;2022-07-03T16:30:21;37.03;27.18
72106;SHT30;59975;47.646;18.318;2022-07-03T16:32:46;37.22;27.41
72106;SHT30;59975;47.646;18.318;2022-07-03T16:35:16;37.17;27.30
72106;SHT30;59975;47.646;18.318;2022-07-03T16:37:50;36.79;27.98
72106;SHT30;59975;47.646;18.318;2022-07-03T16:40:17;36.61;28.01
72106;SHT30;59975;47.646;18.318;2022-07-03T16:42:44;36.44;27.86
72106;SHT30;59975;47.646;18.318;2022-07-03T16:45:11;36.04;28.25
72106;SHT30;59975;47.646;18.318;2022-07-03T16:47:42;36.34;28.12
72106;SHT30;59975;47.646;18.318;2022-07-03T16:50:10;36.58;27.29
72106;SHT30;59975;47.646;18.318;2022-07-03T16:52:36;36.68;27.45
72106;SHT30;59975;47.646;18.318;2022-07-03T16:55:03;36.92;27.21
72106;SHT30;59975;47.646;18.318;2022-07-03T16:57:29;36.58;28.27
72106;SHT30;59975;47.646;18.318;2022-07-03T16:59:55;36.21;28.31
72106;SHT30;59975;47.646;18.318;2022-07-03T17:02:23;36.03;28.77
72106;SHT30;59975;47.646;18.318;2022-07-03T17:04:50;35.83;28.20
72106;SHT30;59975;47.646;18.318;2022-07-03T17:07:19;35.57;29.42
72106;SHT30;59975;47.646;18.318;2022-07-03T17:09:46;35.59;29.02
72106;SHT30;59975;47.646;18.318;2022-07-03T17:12:11;35.31;29.72
72106;SHT30;59975;47.646;18.318;2022-07-03T17:14:37;35.21;30.16
72106;SHT30;59975;47.646;18.318;2022-07-03T17:17:08;34.84;30.72
72106;SHT30;59975;47.646;18.318;2022-07-03T17:19:41;35.06;30.66
72106;SHT30;59975;47.646;18.318;2022-07-03T17:22:08;35.02;30.59
72106;SHT30;59975;47.646;18.318;2022-07-03T17:24:36;34.96;30.54
72106;SHT30;59975;47.646;18.318;2022-07-03T17:27:02;34.94;30.91
72106;SHT30;59975;47.646;18.318;2022-07-03T17:29:39;34.72;31.28
72106;SHT30;59975;47.646;18.318;2022-07-03T17:32:07;34.71;31.36
72106;SHT30;59975;47.646;18.318;2022-07-03T17:34:35;34.64;31.71
72106;SHT30;59975;47.646;18.318;2022-07-03T17:37:01;34.41;32.20
72106;SHT30;59975;47.646;18.318;2022-07-03T17:39:28;34.43;32.39